OMSJ/SHJ METAR and TAF weather

Enter ICAO airport designator
Station Type Date Time Source
OMSJ METAR 2022/11/30 11:00 UTC NOAA

OMSJ 301100Z 29011KT CAVOK 30/17 Q1015 NOSIG


Station Type Date Time Source
OMSJ Decoded METAR 2022/11/30 11:00 UTC NOAA

Sharjah International Airport, United Arab Emirates (OMSJ) 25-20N 055-31E 33M
Nov 30, 2022 - 06:00 AM EST / 2022.11.30 1100 UTC
Wind: from the WNW (290 degrees) at 13 MPH (11 KT):0
Visibility: greater than 7 mile(s):0
Temperature: 86 F (30 C)
Dew Point: 62 F (17 C)
Relative Humidity: 45%
Pressure (altimeter): 29.97 in. Hg (1015 hPa)
ob: OMSJ 301100Z 29011KT CAVOK 30/17 Q1015 NOSIG
cycle: 11

Station Type Date Time Source
OMSJ TAF 2022/11/30 12:12 UTC NOAA

TAF OMSJ 301100Z 3012/0118 34010KT CAVOK
BECMG 3015/3017 12005KT PROB30 0100/0104 4000 HZ
BECMG 0108/0110 33010KT

Example: see airport list